createdAt,value
2019-01-14T00:04:32.147Z,15.33
2019-01-14T00:09:36.400Z,15.00
2019-01-14T00:14:40.682Z,13.37
2019-01-14T00:19:44.935Z,14.20
2019-01-14T00:24:49.107Z,16.40
2019-01-14T00:29:53.357Z,14.07
2019-01-14T00:34:57.542Z,16.80
2019-01-14T00:40:01.707Z,21.67
2019-01-14T00:45:06.871Z,21.13
2019-01-14T00:50:12.653Z,16.53
2019-01-14T00:55:16.892Z,21.23
2019-01-14T01:00:24.745Z,15.93
2019-01-14T01:05:28.918Z,21.00
2019-01-14T01:10:33.071Z,20.00
2019-01-14T01:15:37.257Z,18.97
2019-01-14T01:20:41.430Z,19.87
2019-01-14T01:25:45.646Z,16.13
2019-01-14T01:30:49.826Z,16.83
2019-01-14T01:35:53.995Z,17.43
2019-01-14T01:40:58.170Z,14.50
2019-01-14T01:46:02.357Z,20.57
2019-01-14T01:51:06.528Z,19.20
2019-01-14T01:56:10.714Z,22.90
2019-01-14T02:01:15.083Z,15.77
2019-01-14T02:06:19.255Z,23.13
2019-01-14T02:11:23.408Z,23.23
2019-01-14T02:16:27.590Z,22.17
2019-01-14T02:21:31.759Z,23.27
2019-01-14T02:26:35.927Z,21.20
2019-01-14T02:31:40.099Z,24.97
2019-01-14T02:36:48.393Z,17.47
2019-01-14T02:41:50.167Z,24.70
2019-01-14T02:46:54.376Z,23.77
2019-01-14T02:51:58.555Z,19.93
2019-01-14T02:57:02.817Z,25.70
2019-01-14T03:02:07.275Z,21.37
2019-01-14T03:07:11.455Z,22.53
2019-01-14T03:12:15.672Z,26.37
2019-01-14T03:17:19.947Z,21.87
2019-01-14T03:22:24.253Z,22.97
2019-01-14T03:27:28.437Z,21.33
2019-01-14T03:32:32.611Z,22.03
2019-01-14T03:37:36.857Z,22.40
2019-01-14T03:42:41.028Z,18.10
2019-01-14T03:47:45.207Z,24.63
2019-01-14T03:52:49.586Z,24.90
2019-01-14T03:57:54.237Z,23.03
2019-01-14T04:02:58.480Z,22.27
2019-01-14T04:08:02.651Z,18.40
2019-01-14T04:13:06.807Z,18.80
2019-01-14T04:18:11.056Z,18.60
2019-01-14T04:23:15.250Z,19.03
2019-01-14T04:28:19.471Z,18.40
2019-01-14T04:33:23.644Z,17.73
2019-01-14T04:38:27.824Z,20.57
2019-01-14T04:43:32.009Z,22.27
2019-01-14T04:48:36.187Z,20.70
2019-01-14T04:53:40.364Z,16.83
2019-01-14T04:58:44.539Z,19.13
2019-01-14T05:03:48.739Z,17.97
2019-01-14T05:08:52.911Z,16.07
2019-01-14T05:13:57.069Z,19.00
2019-01-14T05:19:01.316Z,16.63
2019-01-14T05:24:05.557Z,21.00
2019-01-14T05:29:09.794Z,21.53
2019-01-14T05:34:13.975Z,19.57
2019-01-14T05:39:18.224Z,21.50
2019-01-14T05:44:22.415Z,23.60
2019-01-14T05:49:26.604Z,18.13
2019-01-14T05:54:30.839Z,22.97
2019-01-14T05:59:35.020Z,17.43
2019-01-14T06:04:39.191Z,26.67
2019-01-14T06:09:43.371Z,22.03
2019-01-14T06:14:47.560Z,19.57
2019-01-14T06:19:52.027Z,19.23
2019-01-14T06:24:56.204Z,18.50
2019-01-14T06:30:00.371Z,15.30
2019-01-14T06:35:05.019Z,12.33
2019-01-14T06:40:10.831Z,9.93
2019-01-14T06:45:15.243Z,11.63
2019-01-14T06:50:20.206Z,16.83
2019-01-14T06:55:24.375Z,13.87
2019-01-14T07:00:29.103Z,15.20
2019-01-14T07:05:33.291Z,11.67
2019-01-14T07:10:37.454Z,13.70
2019-01-14T07:15:41.630Z,16.57
2019-01-14T07:20:45.827Z,16.07
2019-01-14T07:25:50.031Z,10.93
2019-01-14T07:30:54.349Z,17.43
2019-01-14T07:35:58.545Z,14.30
2019-01-14T07:41:02.726Z,5.63
2019-01-14T07:46:06.926Z,3.80
2019-01-14T07:51:11.134Z,6.77
2019-01-14T07:56:15.790Z,6.20
2019-01-14T08:01:19.967Z,8.93
2019-01-14T08:06:24.217Z,12.43
2019-01-14T08:11:28.403Z,9.60
2019-01-14T08:16:32.595Z,12.53
2019-01-14T08:21:36.791Z,8.87
2019-01-14T08:26:41.055Z,8.17
2019-01-14T08:31:45.362Z,8.60
2019-01-14T08:36:49.628Z,7.93
2019-01-14T08:41:58.344Z,7.57
2019-01-14T08:47:02.591Z,8.23
2019-01-14T08:52:06.851Z,8.67
2019-01-14T08:57:11.207Z,8.70
2019-01-14T09:02:15.382Z,8.17
2019-01-14T09:07:19.595Z,7.17
2019-01-14T09:12:23.756Z,6.33
2019-01-14T09:17:27.947Z,6.03
2019-01-14T09:22:32.119Z,3.83
2019-01-14T09:27:36.364Z,6.50
2019-01-14T09:32:40.530Z,5.27
2019-01-14T09:37:44.703Z,10.10
2019-01-14T09:42:48.908Z,10.40
2019-01-14T09:47:53.202Z,6.80
2019-01-14T09:52:57.492Z,12.30
2019-01-14T09:58:02.028Z,7.67
2019-01-14T10:03:07.311Z,10.93
2019-01-14T10:08:11.687Z,8.07
2019-01-14T10:13:15.922Z,10.63
2019-01-14T10:18:20.109Z,8.83
2019-01-14T10:23:23.949Z,7.60
2019-01-14T10:28:27.673Z,11.13
2019-01-14T10:33:31.323Z,7.55
2019-01-14T10:38:34.961Z,6.78
2019-01-14T10:43:38.728Z,9.25
2019-01-14T10:48:42.457Z,7.92
2019-01-14T10:53:46.135Z,4.65
2019-01-14T10:58:49.779Z,10.95
2019-01-14T11:03:53.971Z,13.55
2019-01-14T11:09:05.694Z,9.13
2019-01-14T11:14:04.522Z,9.63
2019-01-14T11:19:08.791Z,9.27
2019-01-14T11:24:13.001Z,10.63
2019-01-14T11:29:17.167Z,8.43
2019-01-14T11:34:21.339Z,9.40
2019-01-14T11:39:25.581Z,7.10
2019-01-14T11:44:29.782Z,8.00
2019-01-14T11:49:33.960Z,6.60
2019-01-14T11:54:38.262Z,10.57
2019-01-14T11:59:43.944Z,8.73
2019-01-14T12:04:48.132Z,8.80
2019-01-14T12:09:52.298Z,7.00
2019-01-14T12:14:56.475Z,9.80
2019-01-14T12:20:00.743Z,7.23
2019-01-14T12:25:05.716Z,8.97
2019-01-14T12:30:32.033Z,5.37
2019-01-14T12:47:43.876Z,9.47
2019-01-14T12:52:48.092Z,8.47
2019-01-14T12:57:52.255Z,6.77
2019-01-14T13:02:58.418Z,6.47
2019-01-14T13:08:02.392Z,10.63
2019-01-14T13:13:06.729Z,5.43
2019-01-14T13:18:10.925Z,5.77
2019-01-14T13:23:15.104Z,9.67
2019-01-14T13:28:19.306Z,9.53
2019-01-14T13:33:23.517Z,6.77
2019-01-14T13:38:27.694Z,6.73
2019-01-14T13:43:31.881Z,7.40
2019-01-14T13:48:36.083Z,7.47
2019-01-14T13:53:40.291Z,4.93
2019-01-14T13:58:44.520Z,7.27
2019-01-14T14:03:48.776Z,6.43
2019-01-14T14:08:52.960Z,5.63
2019-01-14T14:13:58.108Z,6.00
2019-01-14T14:19:02.373Z,5.47
2019-01-14T14:24:06.548Z,4.57
2019-01-14T14:29:11.077Z,7.53
2019-01-14T14:34:15.277Z,8.40
2019-01-14T14:39:19.435Z,6.63
2019-01-14T14:44:23.827Z,10.97
2019-01-14T14:49:28.036Z,9.67
2019-01-14T14:54:32.247Z,11.10
2019-01-14T14:59:36.455Z,6.87
2019-01-14T15:04:40.647Z,5.40
2019-01-14T15:09:44.981Z,7.23
2019-01-14T15:14:49.161Z,4.93
2019-01-14T15:19:53.429Z,4.80
2019-01-14T15:24:57.668Z,6.50
2019-01-14T15:30:01.881Z,6.33
2019-01-14T15:35:06.355Z,7.87
2019-01-14T15:40:12.008Z,8.17
2019-01-14T15:45:17.380Z,8.97
2019-01-14T15:50:21.569Z,8.13
2019-01-14T15:55:28.279Z,12.97
2019-01-14T16:00:32.496Z,7.17
2019-01-14T16:05:36.700Z,8.07
2019-01-14T16:10:40.983Z,8.50
2019-01-14T16:15:45.297Z,8.07
2019-01-14T16:20:49.579Z,8.23
2019-01-14T16:25:53.858Z,7.70
2019-01-14T16:30:58.119Z,7.40
2019-01-14T16:36:02.397Z,9.47
2019-01-14T16:41:06.617Z,8.20
2019-01-14T16:46:10.942Z,7.93
2019-01-14T16:51:15.228Z,6.70
2019-01-14T16:56:19.445Z,8.07
2019-01-14T17:01:23.643Z,6.83
2019-01-14T17:06:27.841Z,7.60
2019-01-14T17:11:32.110Z,7.43
2019-01-14T17:16:37.437Z,7.03
2019-01-14T17:21:41.811Z,4.40
2019-01-14T17:26:45.987Z,9.63
2019-01-14T17:31:50.296Z,4.73
2019-01-14T17:36:54.500Z,9.97
2019-01-14T17:41:59.154Z,9.30
2019-01-14T17:47:03.349Z,7.27
2019-01-14T17:52:07.599Z,6.57
2019-01-14T17:57:11.935Z,8.20
2019-01-14T18:02:16.298Z,7.60
2019-01-14T18:07:20.737Z,5.87
2019-01-14T18:12:24.919Z,5.63
2019-01-14T18:17:29.219Z,8.57
2019-01-14T18:22:33.384Z,8.67
2019-01-14T18:27:37.728Z,11.13
2019-01-14T18:32:41.904Z,6.47
2019-01-14T18:37:46.194Z,9.60
2019-01-14T18:42:50.394Z,7.83
2019-01-14T18:47:54.606Z,9.60
2019-01-14T18:52:58.865Z,10.40
2019-01-14T18:58:03.131Z,14.80
2019-01-14T19:03:07.422Z,4.73
2019-01-14T19:08:11.778Z,16.00
2019-01-14T19:13:16.160Z,11.07
2019-01-14T19:18:20.355Z,10.40
2019-01-14T19:23:24.541Z,9.83
2019-01-14T19:28:28.791Z,10.80
2019-01-14T19:33:32.973Z,9.17
2019-01-14T19:38:37.307Z,15.37
2019-01-14T19:43:41.524Z,12.30
2019-01-14T19:48:45.791Z,10.60
2019-01-14T19:53:50.013Z,10.17
2019-01-14T19:58:54.226Z,14.83
2019-01-14T20:03:58.549Z,10.93
2019-01-14T20:09:03.217Z,8.60
2019-01-14T20:14:07.633Z,11.60
2019-01-14T20:19:11.844Z,13.00
2019-01-14T20:24:16.011Z,7.80
2019-01-14T20:29:20.223Z,10.43
2019-01-14T20:34:24.591Z,12.87
2019-01-14T20:39:28.776Z,8.27
2019-01-14T20:44:33.070Z,9.53
2019-01-14T20:49:37.280Z,9.00
2019-01-14T20:54:41.540Z,17.70
2019-01-14T20:59:45.824Z,11.93
2019-01-14T21:04:50.247Z,9.97
2019-01-14T21:09:54.574Z,11.37
2019-01-14T21:14:58.871Z,9.77
2019-01-14T21:20:03.095Z,11.27
2019-01-14T21:25:08.648Z,8.00
2019-01-14T21:30:16.200Z,8.80
2019-01-14T21:35:20.526Z,15.23
2019-01-14T21:40:25.015Z,16.57
2019-01-14T21:45:29.213Z,10.03
2019-01-14T21:50:33.620Z,8.17
2019-01-14T21:55:37.855Z,11.83
2019-01-14T22:00:42.092Z,13.43
2019-01-14T22:05:47.897Z,14.67
2019-01-14T22:10:52.288Z,14.60
2019-01-14T22:15:56.470Z,14.37
2019-01-14T22:21:00.690Z,10.30
2019-01-14T22:26:04.895Z,13.50
2019-01-14T22:31:09.100Z,12.33
2019-01-14T22:36:13.281Z,10.40
2019-01-14T22:41:17.532Z,14.53
2019-01-14T22:46:21.848Z,12.27
2019-01-14T22:51:26.040Z,16.87
2019-01-14T22:56:30.223Z,9.53
2019-01-14T23:01:39.587Z,13.70
2019-01-14T23:06:43.797Z,12.80
2019-01-14T23:11:53.035Z,9.23
2019-01-14T23:16:53.871Z,12.07
2019-01-14T23:21:58.047Z,12.17
2019-01-14T23:27:02.226Z,12.27
2019-01-14T23:32:06.417Z,14.83
2019-01-14T23:37:10.632Z,13.77
2019-01-14T23:42:14.892Z,6.53
2019-01-14T23:47:19.268Z,16.27
2019-01-14T23:52:23.560Z,12.00
2019-01-14T23:57:27.789Z,9.83
